sensor_id;sensor_type;location;lat;lon;timestamp;P1;durP1;ratioP1;P2;durP2;ratioP2
39104;SDS011;46464;51.154;13.812;2023-11-21T00:03:47;5.15;;;2.17;;
39104;SDS011;46464;51.154;13.812;2023-11-21T00:06:13;6.63;;;2.42;;
39104;SDS011;46464;51.154;13.812;2023-11-21T00:08:41;5.70;;;2.20;;
39104;SDS011;46464;51.154;13.812;2023-11-21T00:11:07;3.63;;;2.00;;
39104;SDS011;46464;51.154;13.812;2023-11-21T00:16:01;5.82;;;2.47;;
39104;SDS011;46464;51.154;13.812;2023-11-21T00:18:28;5.53;;;2.95;;
39104;SDS011;46464;51.154;13.812;2023-11-21T00:20:54;7.18;;;2.40;;
39104;SDS011;46464;51.154;13.812;2023-11-21T00:23:21;4.00;;;2.25;;
39104;SDS011;46464;51.154;13.812;2023-11-21T00:25:47;3.75;;;1.88;;
39104;SDS011;46464;51.154;13.812;2023-11-21T00:28:14;5.82;;;2.35;;
39104;SDS011;46464;51.154;13.812;2023-11-21T00:30:41;5.93;;;2.15;;
39104;SDS011;46464;51.154;13.812;2023-11-21T00:38:01;6.15;;;1.90;;
39104;SDS011;46464;51.154;13.812;2023-11-21T00:40:29;4.28;;;2.20;;
39104;SDS011;46464;51.154;13.812;2023-11-21T00:42:57;5.43;;;2.13;;
39104;SDS011;46464;51.154;13.812;2023-11-21T00:47:50;4.97;;;2.13;;
39104;SDS011;46464;51.154;13.812;2023-11-21T00:52:43;4.55;;;2.13;;
39104;SDS011;46464;51.154;13.812;2023-11-21T00:55:11;3.47;;;2.00;;
39104;SDS011;46464;51.154;13.812;2023-11-21T00:57:38;5.60;;;2.15;;
39104;SDS011;46464;51.154;13.812;2023-11-21T01:00:05;5.45;;;1.92;;
39104;SDS011;46464;51.154;13.812;2023-11-21T01:02:52;6.88;;;2.10;;
39104;SDS011;46464;51.154;13.812;2023-11-21T01:05:18;5.65;;;2.40;;
39104;SDS011;46464;51.154;13.812;2023-11-21T01:07:49;4.97;;;2.20;;
39104;SDS011;46464;51.154;13.812;2023-11-21T01:10:16;5.45;;;1.95;;
39104;SDS011;46464;51.154;13.812;2023-11-21T01:12:47;10.50;;;2.63;;
39104;SDS011;46464;51.154;13.812;2023-11-21T01:15:15;7.15;;;2.40;;
39104;SDS011;46464;51.154;13.812;2023-11-21T01:17:42;7.80;;;2.30;;
39104;SDS011;46464;51.154;13.812;2023-11-21T01:20:16;7.80;;;2.38;;
39104;SDS011;46464;51.154;13.812;2023-11-21T01:22:44;4.38;;;1.98;;
39104;SDS011;46464;51.154;13.812;2023-11-21T01:27:46;4.70;;;2.20;;
39104;SDS011;46464;51.154;13.812;2023-11-21T01:30:17;6.63;;;2.22;;
39104;SDS011;46464;51.154;13.812;2023-11-21T01:32:48;5.47;;;2.10;;
39104;SDS011;46464;51.154;13.812;2023-11-21T01:35:17;4.95;;;2.30;;
39104;SDS011;46464;51.154;13.812;2023-11-21T01:37:43;4.63;;;1.92;;
39104;SDS011;46464;51.154;13.812;2023-11-21T01:40:14;8.75;;;2.17;;
39104;SDS011;46464;51.154;13.812;2023-11-21T01:42:41;12.07;;;3.20;;
39104;SDS011;46464;51.154;13.812;2023-11-21T01:45:15;8.65;;;2.28;;
39104;SDS011;46464;51.154;13.812;2023-11-21T01:47:53;7.63;;;2.92;;
39104;SDS011;46464;51.154;13.812;2023-11-21T01:50:23;8.68;;;2.20;;
39104;SDS011;46464;51.154;13.812;2023-11-21T01:52:53;6.72;;;2.25;;
39104;SDS011;46464;51.154;13.812;2023-11-21T01:55:27;5.88;;;2.65;;
39104;SDS011;46464;51.154;13.812;2023-11-21T01:57:56;5.25;;;2.25;;
39104;SDS011;46464;51.154;13.812;2023-11-21T02:00:34;6.90;;;2.28;;
39104;SDS011;46464;51.154;13.812;2023-11-21T02:03:04;4.88;;;2.45;;
39104;SDS011;46464;51.154;13.812;2023-11-21T02:05:31;10.15;;;2.20;;
39104;SDS011;46464;51.154;13.812;2023-11-21T02:08:01;6.05;;;2.40;;
39104;SDS011;46464;51.154;13.812;2023-11-21T02:10:30;4.68;;;2.10;;
39104;SDS011;46464;51.154;13.812;2023-11-21T02:13:09;7.15;;;2.22;;
39104;SDS011;46464;51.154;13.812;2023-11-21T02:15:46;6.20;;;2.65;;
39104;SDS011;46464;51.154;13.812;2023-11-21T02:18:14;5.97;;;2.30;;
39104;SDS011;46464;51.154;13.812;2023-11-21T02:20:51;9.70;;;2.30;;
39104;SDS011;46464;51.154;13.812;2023-11-21T02:23:38;6.88;;;2.40;;
39104;SDS011;46464;51.154;13.812;2023-11-21T02:26:28;6.30;;;2.33;;
39104;SDS011;46464;51.154;13.812;2023-11-21T02:28:59;5.80;;;2.40;;
39104;SDS011;46464;51.154;13.812;2023-11-21T02:31:36;5.28;;;2.00;;
39104;SDS011;46464;51.154;13.812;2023-11-21T02:34:27;6.43;;;2.30;;
39104;SDS011;46464;51.154;13.812;2023-11-21T02:36:54;17.77;;;4.63;;
39104;SDS011;46464;51.154;13.812;2023-11-21T02:39:22;9.50;;;2.45;;
39104;SDS011;46464;51.154;13.812;2023-11-21T02:41:54;6.05;;;2.60;;
39104;SDS011;46464;51.154;13.812;2023-11-21T02:44:22;7.80;;;2.63;;
39104;SDS011;46464;51.154;13.812;2023-11-21T02:46:48;6.95;;;2.35;;
39104;SDS011;46464;51.154;13.812;2023-11-21T02:49:24;4.78;;;2.35;;
39104;SDS011;46464;51.154;13.812;2023-11-21T02:51:54;9.20;;;2.28;;
39104;SDS011;46464;51.154;13.812;2023-11-21T02:54:21;6.20;;;2.28;;
39104;SDS011;46464;51.154;13.812;2023-11-21T02:56:51;5.35;;;2.40;;
39104;SDS011;46464;51.154;13.812;2023-11-21T02:59:17;11.10;;;2.88;;
39104;SDS011;46464;51.154;13.812;2023-11-21T03:01:48;7.20;;;2.67;;
39104;SDS011;46464;51.154;13.812;2023-11-21T03:04:18;3.65;;;2.17;;
39104;SDS011;46464;51.154;13.812;2023-11-21T03:06:49;9.63;;;2.65;;
39104;SDS011;46464;51.154;13.812;2023-11-21T03:09:16;9.45;;;2.53;;
39104;SDS011;46464;51.154;13.812;2023-11-21T03:11:46;10.88;;;2.92;;
39104;SDS011;46464;51.154;13.812;2023-11-21T03:14:16;7.50;;;2.70;;
39104;SDS011;46464;51.154;13.812;2023-11-21T03:16:47;8.90;;;2.78;;
39104;SDS011;46464;51.154;13.812;2023-11-21T03:19:17;10.63;;;3.03;;
39104;SDS011;46464;51.154;13.812;2023-11-21T03:21:47;8.25;;;2.97;;
39104;SDS011;46464;51.154;13.812;2023-11-21T03:24:13;7.47;;;3.42;;
39104;SDS011;46464;51.154;13.812;2023-11-21T03:26:44;8.85;;;2.90;;
39104;SDS011;46464;51.154;13.812;2023-11-21T03:29:14;8.90;;;3.13;;
39104;SDS011;46464;51.154;13.812;2023-11-21T03:31:41;5.88;;;2.85;;
39104;SDS011;46464;51.154;13.812;2023-11-21T03:34:15;8.80;;;2.72;;
39104;SDS011;46464;51.154;13.812;2023-11-21T03:36:49;11.02;;;3.08;;
39104;SDS011;46464;51.154;13.812;2023-11-21T03:39:16;8.35;;;2.92;;
39104;SDS011;46464;51.154;13.812;2023-11-21T03:41:43;7.75;;;3.08;;
39104;SDS011;46464;51.154;13.812;2023-11-21T03:44:10;9.18;;;2.85;;
39104;SDS011;46464;51.154;13.812;2023-11-21T03:46:37;9.77;;;2.42;;
39104;SDS011;46464;51.154;13.812;2023-11-21T03:49:04;6.43;;;3.17;;
39104;SDS011;46464;51.154;13.812;2023-11-21T03:51:30;6.68;;;2.60;;
39104;SDS011;46464;51.154;13.812;2023-11-21T03:53:58;5.97;;;2.53;;
39104;SDS011;46464;51.154;13.812;2023-11-21T03:56:24;6.70;;;3.00;;
39104;SDS011;46464;51.154;13.812;2023-11-21T04:01:26;9.60;;;3.00;;
39104;SDS011;46464;51.154;13.812;2023-11-21T04:06:20;13.60;;;3.22;;
39104;SDS011;46464;51.154;13.812;2023-11-21T04:08:46;7.57;;;2.83;;
39104;SDS011;46464;51.154;13.812;2023-11-21T04:11:16;6.45;;;2.83;;
39104;SDS011;46464;51.154;13.812;2023-11-21T04:13:42;7.65;;;2.85;;
39104;SDS011;46464;51.154;13.812;2023-11-21T04:16:09;9.52;;;3.38;;
39104;SDS011;46464;51.154;13.812;2023-11-21T04:18:36;6.43;;;2.83;;
39104;SDS011;46464;51.154;13.812;2023-11-21T04:21:04;8.13;;;2.97;;
39104;SDS011;46464;51.154;13.812;2023-11-21T04:23:32;12.90;;;2.75;;
39104;SDS011;46464;51.154;13.812;2023-11-21T04:25:59;9.35;;;3.22;;
39104;SDS011;46464;51.154;13.812;2023-11-21T04:28:29;12.50;;;4.05;;
39104;SDS011;46464;51.154;13.812;2023-11-21T04:35:49;9.02;;;2.70;;
39104;SDS011;46464;51.154;13.812;2023-11-21T04:38:16;7.35;;;4.00;;
39104;SDS011;46464;51.154;13.812;2023-11-21T04:40:42;6.32;;;3.58;;
39104;SDS011;46464;51.154;13.812;2023-11-21T04:43:09;8.45;;;3.28;;
39104;SDS011;46464;51.154;13.812;2023-11-21T04:45:35;10.20;;;3.78;;
39104;SDS011;46464;51.154;13.812;2023-11-21T04:50:29;12.90;;;4.95;;
39104;SDS011;46464;51.154;13.812;2023-11-21T04:55:23;6.75;;;3.75;;
39104;SDS011;46464;51.154;13.812;2023-11-21T04:57:49;11.20;;;3.90;;
39104;SDS011;46464;51.154;13.812;2023-11-21T05:07:48;6.88;;;4.22;;
39104;SDS011;46464;51.154;13.812;2023-11-21T05:10:15;10.23;;;4.88;;
39104;SDS011;46464;51.154;13.812;2023-11-21T05:12:42;13.00;;;4.05;;
39104;SDS011;46464;51.154;13.812;2023-11-21T05:15:11;12.02;;;4.30;;
39104;SDS011;46464;51.154;13.812;2023-11-21T05:17:40;15.00;;;4.45;;
39104;SDS011;46464;51.154;13.812;2023-11-21T05:20:16;11.27;;;5.97;;
39104;SDS011;46464;51.154;13.812;2023-11-21T05:22:47;11.38;;;4.85;;
39104;SDS011;46464;51.154;13.812;2023-11-21T05:25:17;13.52;;;5.22;;
39104;SDS011;46464;51.154;13.812;2023-11-21T05:27:47;16.83;;;5.18;;
39104;SDS011;46464;51.154;13.812;2023-11-21T05:30:17;15.02;;;4.97;;
39104;SDS011;46464;51.154;13.812;2023-11-21T05:32:45;14.98;;;4.78;;
39104;SDS011;46464;51.154;13.812;2023-11-21T05:35:13;13.35;;;4.60;;
39104;SDS011;46464;51.154;13.812;2023-11-21T05:37:43;12.23;;;4.68;;
39104;SDS011;46464;51.154;13.812;2023-11-21T05:40:12;9.90;;;4.47;;
39104;SDS011;46464;51.154;13.812;2023-11-21T05:42:39;14.52;;;4.22;;
39104;SDS011;46464;51.154;13.812;2023-11-21T05:45:07;12.50;;;4.40;;
39104;SDS011;46464;51.154;13.812;2023-11-21T05:47:42;9.77;;;5.15;;
39104;SDS011;46464;51.154;13.812;2023-11-21T05:50:13;15.63;;;5.60;;
39104;SDS011;46464;51.154;13.812;2023-11-21T05:52:41;15.85;;;4.88;;
39104;SDS011;46464;51.154;13.812;2023-11-21T05:55:11;12.32;;;4.70;;
39104;SDS011;46464;51.154;13.812;2023-11-21T05:57:40;9.57;;;4.60;;
39104;SDS011;46464;51.154;13.812;2023-11-21T06:00:09;14.75;;;5.20;;
39104;SDS011;46464;51.154;13.812;2023-11-21T06:02:39;11.80;;;4.82;;
39104;SDS011;46464;51.154;13.812;2023-11-21T06:07:38;13.32;;;5.18;;
39104;SDS011;46464;51.154;13.812;2023-11-21T06:10:05;14.98;;;5.82;;
39104;SDS011;46464;51.154;13.812;2023-11-21T06:12:35;13.75;;;5.05;;
39104;SDS011;46464;51.154;13.812;2023-11-21T06:15:05;14.35;;;5.22;;
39104;SDS011;46464;51.154;13.812;2023-11-21T06:17:35;16.80;;;5.45;;
39104;SDS011;46464;51.154;13.812;2023-11-21T06:20:06;16.35;;;5.50;;
39104;SDS011;46464;51.154;13.812;2023-11-21T06:22:41;14.98;;;5.57;;
39104;SDS011;46464;51.154;13.812;2023-11-21T06:25:09;15.77;;;5.55;;
39104;SDS011;46464;51.154;13.812;2023-11-21T06:27:43;18.50;;;5.95;;
39104;SDS011;46464;51.154;13.812;2023-11-21T06:30:18;19.67;;;5.97;;
39104;SDS011;46464;51.154;13.812;2023-11-21T06:32:45;11.52;;;5.47;;
39104;SDS011;46464;51.154;13.812;2023-11-21T06:35:14;18.27;;;6.20;;
39104;SDS011;46464;51.154;13.812;2023-11-21T06:37:42;14.98;;;5.60;;
39104;SDS011;46464;51.154;13.812;2023-11-21T06:40:31;22.33;;;6.70;;
39104;SDS011;46464;51.154;13.812;2023-11-21T06:43:19;15.52;;;6.93;;
39104;SDS011;46464;51.154;13.812;2023-11-21T06:45:48;22.83;;;7.75;;
39104;SDS011;46464;51.154;13.812;2023-11-21T06:48:24;26.52;;;7.95;;
39104;SDS011;46464;51.154;13.812;2023-11-21T06:50:57;19.35;;;7.32;;
39104;SDS011;46464;51.154;13.812;2023-11-21T06:56:16;19.75;;;6.93;;
39104;SDS011;46464;51.154;13.812;2023-11-21T06:58:49;20.60;;;8.82;;
39104;SDS011;46464;51.154;13.812;2023-11-21T07:01:48;58.97;;;34.45;;
39104;SDS011;46464;51.154;13.812;2023-11-21T07:04:26;54.55;;;42.22;;
39104;SDS011;46464;51.154;13.812;2023-11-21T07:07:12;30.48;;;15.60;;
39104;SDS011;46464;51.154;13.812;2023-11-21T07:09:41;15.77;;;6.60;;
39104;SDS011;46464;51.154;13.812;2023-11-21T07:12:16;22.70;;;7.40;;
39104;SDS011;46464;51.154;13.812;2023-11-21T07:14:53;15.93;;;6.55;;
39104;SDS011;46464;51.154;13.812;2023-11-21T07:17:22;24.17;;;7.10;;
39104;SDS011;46464;51.154;13.812;2023-11-21T07:22:36;20.38;;;8.35;;
39104;SDS011;46464;51.154;13.812;2023-11-21T07:25:03;20.02;;;8.52;;
39104;SDS011;46464;51.154;13.812;2023-11-21T07:27:33;24.77;;;9.38;;
39104;SDS011;46464;51.154;13.812;2023-11-21T07:30:08;18.42;;;7.95;;
39104;SDS011;46464;51.154;13.812;2023-11-21T07:32:40;16.77;;;8.73;;
39104;SDS011;46464;51.154;13.812;2023-11-21T07:35:11;26.42;;;8.40;;
39104;SDS011;46464;51.154;13.812;2023-11-21T07:37:37;26.70;;;9.07;;
39104;SDS011;46464;51.154;13.812;2023-11-21T07:40:05;19.02;;;8.02;;
39104;SDS011;46464;51.154;13.812;2023-11-21T07:42:38;19.58;;;7.45;;
39104;SDS011;46464;51.154;13.812;2023-11-21T07:45:11;24.17;;;9.20;;
39104;SDS011;46464;51.154;13.812;2023-11-21T07:47:42;21.15;;;9.02;;
39104;SDS011;46464;51.154;13.812;2023-11-21T07:50:44;22.63;;;8.77;;
39104;SDS011;46464;51.154;13.812;2023-11-21T07:53:25;19.30;;;8.45;;
39104;SDS011;46464;51.154;13.812;2023-11-21T07:56:03;17.90;;;8.13;;
39104;SDS011;46464;51.154;13.812;2023-11-21T07:58:43;19.63;;;8.07;;
39104;SDS011;46464;51.154;13.812;2023-11-21T08:04:18;27.45;;;8.20;;
39104;SDS011;46464;51.154;13.812;2023-11-21T08:06:51;24.20;;;9.88;;
39104;SDS011;46464;51.154;13.812;2023-11-21T08:09:31;21.08;;;9.48;;
39104;SDS011;46464;51.154;13.812;2023-11-21T08:12:04;24.40;;;8.45;;
39104;SDS011;46464;51.154;13.812;2023-11-21T08:14:34;22.55;;;9.07;;
39104;SDS011;46464;51.154;13.812;2023-11-21T08:20:27;31.88;;;8.27;;
39104;SDS011;46464;51.154;13.812;2023-11-21T08:23:03;32.10;;;9.97;;
39104;SDS011;46464;51.154;13.812;2023-11-21T08:25:32;25.45;;;9.23;;
39104;SDS011;46464;51.154;13.812;2023-11-21T08:28:01;20.85;;;7.80;;
39104;SDS011;46464;51.154;13.812;2023-11-21T08:30:30;22.45;;;8.20;;
39104;SDS011;46464;51.154;13.812;2023-11-21T08:32:58;23.67;;;8.32;;
39104;SDS011;46464;51.154;13.812;2023-11-21T08:35:25;25.92;;;8.65;;
39104;SDS011;46464;51.154;13.812;2023-11-21T08:37:52;20.15;;;8.68;;
39104;SDS011;46464;51.154;13.812;2023-11-21T08:40:21;18.38;;;8.40;;
39104;SDS011;46464;51.154;13.812;2023-11-21T08:42:48;16.33;;;7.68;;
39104;SDS011;46464;51.154;13.812;2023-11-21T08:45:15;20.70;;;8.95;;
39104;SDS011;46464;51.154;13.812;2023-11-21T08:47:44;13.13;;;7.43;;
39104;SDS011;46464;51.154;13.812;2023-11-21T08:50:11;15.18;;;7.18;;
39104;SDS011;46464;51.154;13.812;2023-11-21T08:52:39;14.18;;;9.27;;
39104;SDS011;46464;51.154;13.812;2023-11-21T08:55:07;23.17;;;9.18;;
39104;SDS011;46464;51.154;13.812;2023-11-21T08:57:35;14.43;;;7.28;;
39104;SDS011;46464;51.154;13.812;2023-11-21T09:00:02;16.38;;;9.52;;
39104;SDS011;46464;51.154;13.812;2023-11-21T09:02:33;14.77;;;7.80;;
39104;SDS011;46464;51.154;13.812;2023-11-21T09:05:00;16.30;;;8.68;;
39104;SDS011;46464;51.154;13.812;2023-11-21T09:07:29;12.50;;;7.68;;
39104;SDS011;46464;51.154;13.812;2023-11-21T09:12:32;16.58;;;9.07;;
39104;SDS011;46464;51.154;13.812;2023-11-21T09:14:59;15.43;;;8.52;;
39104;SDS011;46464;51.154;13.812;2023-11-21T09:17:25;8.35;;;3.90;;
39104;SDS011;46464;51.154;13.812;2023-11-21T09:19:53;5.70;;;2.70;;
39104;SDS011;46464;51.154;13.812;2023-11-21T09:22:19;4.90;;;2.97;;
39104;SDS011;46464;51.154;13.812;2023-11-21T09:24:46;3.83;;;2.35;;
39104;SDS011;46464;51.154;13.812;2023-11-21T09:27:14;4.97;;;2.65;;
39104;SDS011;46464;51.154;13.812;2023-11-21T09:29:42;5.18;;;3.45;;
39104;SDS011;46464;51.154;13.812;2023-11-21T09:32:08;8.40;;;3.85;;
39104;SDS011;46464;51.154;13.812;2023-11-21T09:34:38;5.95;;;3.63;;
39104;SDS011;46464;51.154;13.812;2023-11-21T09:37:05;7.88;;;4.75;;
39104;SDS011;46464;51.154;13.812;2023-11-21T09:39:33;10.48;;;5.90;;
39104;SDS011;46464;51.154;13.812;2023-11-21T09:42:04;10.40;;;5.63;;
39104;SDS011;46464;51.154;13.812;2023-11-21T09:44:56;16.13;;;7.30;;
39104;SDS011;46464;51.154;13.812;2023-11-21T09:47:30;12.45;;;6.45;;
39104;SDS011;46464;51.154;13.812;2023-11-21T09:49:59;13.38;;;6.47;;
39104;SDS011;46464;51.154;13.812;2023-11-21T09:52:28;10.13;;;6.47;;
39104;SDS011;46464;51.154;13.812;2023-11-21T09:54:55;15.65;;;6.90;;
39104;SDS011;46464;51.154;13.812;2023-11-21T09:57:24;12.68;;;7.80;;
39104;SDS011;46464;51.154;13.812;2023-11-21T09:59:52;14.75;;;7.55;;
39104;SDS011;46464;51.154;13.812;2023-11-21T10:02:26;14.02;;;7.93;;
39104;SDS011;46464;51.154;13.812;2023-11-21T10:04:59;13.65;;;7.90;;
39104;SDS011;46464;51.154;13.812;2023-11-21T10:07:27;13.82;;;8.52;;
39104;SDS011;46464;51.154;13.812;2023-11-21T10:09:57;17.80;;;9.90;;
39104;SDS011;46464;51.154;13.812;2023-11-21T10:12:26;17.67;;;9.23;;
39104;SDS011;46464;51.154;13.812;2023-11-21T10:14:53;16.23;;;10.63;;
39104;SDS011;46464;51.154;13.812;2023-11-21T10:17:22;15.38;;;10.77;;
39104;SDS011;46464;51.154;13.812;2023-11-21T10:19:53;14.90;;;10.18;;
39104;SDS011;46464;51.154;13.812;2023-11-21T10:22:22;15.43;;;10.93;;
39104;SDS011;46464;51.154;13.812;2023-11-21T10:24:52;17.13;;;9.57;;
39104;SDS011;46464;51.154;13.812;2023-11-21T10:27:20;17.35;;;11.38;;
39104;SDS011;46464;51.154;13.812;2023-11-21T10:29:46;18.48;;;12.02;;
39104;SDS011;46464;51.154;13.812;2023-11-21T10:32:13;16.58;;;10.27;;
39104;SDS011;46464;51.154;13.812;2023-11-21T10:34:40;14.57;;;10.02;;
39104;SDS011;46464;51.154;13.812;2023-11-21T10:37:11;17.20;;;11.52;;
39104;SDS011;46464;51.154;13.812;2023-11-21T10:39:39;21.10;;;12.88;;
39104;SDS011;46464;51.154;13.812;2023-11-21T10:42:07;22.65;;;12.90;;
39104;SDS011;46464;51.154;13.812;2023-11-21T10:44:42;21.55;;;12.73;;
39104;SDS011;46464;51.154;13.812;2023-11-21T10:47:14;16.83;;;11.27;;
39104;SDS011;46464;51.154;13.812;2023-11-21T10:49:42;21.45;;;11.90;;
39104;SDS011;46464;51.154;13.812;2023-11-21T10:52:09;17.95;;;10.65;;
39104;SDS011;46464;51.154;13.812;2023-11-21T10:54:47;22.10;;;11.68;;
39104;SDS011;46464;51.154;13.812;2023-11-21T10:57:16;20.92;;;12.07;;
39104;SDS011;46464;51.154;13.812;2023-11-21T10:59:51;17.15;;;10.90;;
39104;SDS011;46464;51.154;13.812;2023-11-21T11:04:55;18.65;;;9.48;;
39104;SDS011;46464;51.154;13.812;2023-11-21T11:10:05;13.57;;;7.82;;
39104;SDS011;46464;51.154;13.812;2023-11-21T11:12:38;12.63;;;7.97;;
39104;SDS011;46464;51.154;13.812;2023-11-21T11:15:27;11.55;;;6.97;;
39104;SDS011;46464;51.154;13.812;2023-11-21T11:20:27;12.60;;;6.85;;
39104;SDS011;46464;51.154;13.812;2023-11-21T11:29:14;12.18;;;7.60;;
39104;SDS011;46464;51.154;13.812;2023-11-21T11:32:07;11.13;;;6.95;;
39104;SDS011;46464;51.154;13.812;2023-11-21T11:34:50;12.65;;;8.32;;
39104;SDS011;46464;51.154;13.812;2023-11-21T11:37:24;12.25;;;8.15;;
39104;SDS011;46464;51.154;13.812;2023-11-21T11:39:51;13.35;;;8.23;;
39104;SDS011;46464;51.154;13.812;2023-11-21T11:42:18;13.23;;;7.95;;
39104;SDS011;46464;51.154;13.812;2023-11-21T11:47:23;14.43;;;9.32;;
39104;SDS011;46464;51.154;13.812;2023-11-21T11:49:55;12.60;;;8.60;;
39104;SDS011;46464;51.154;13.812;2023-11-21T11:52:35;14.32;;;8.50;;
39104;SDS011;46464;51.154;13.812;2023-11-21T11:55:15;13.52;;;8.50;;
39104;SDS011;46464;51.154;13.812;2023-11-21T11:57:46;13.20;;;8.70;;
39104;SDS011;46464;51.154;13.812;2023-11-21T12:00:16;16.33;;;9.07;;
39104;SDS011;46464;51.154;13.812;2023-11-21T12:02:45;12.75;;;8.57;;
39104;SDS011;46464;51.154;13.812;2023-11-21T12:05:16;16.10;;;9.57;;
39104;SDS011;46464;51.154;13.812;2023-11-21T12:07:51;14.98;;;8.88;;
39104;SDS011;46464;51.154;13.812;2023-11-21T12:10:23;15.77;;;9.98;;
39104;SDS011;46464;51.154;13.812;2023-11-21T12:12:54;17.70;;;9.25;;
39104;SDS011;46464;51.154;13.812;2023-11-21T12:15:22;15.73;;;9.07;;
39104;SDS011;46464;51.154;13.812;2023-11-21T12:17:51;14.25;;;8.73;;
39104;SDS011;46464;51.154;13.812;2023-11-21T12:20:18;14.23;;;9.40;;
39104;SDS011;46464;51.154;13.812;2023-11-21T12:22:47;13.23;;;8.43;;
39104;SDS011;46464;51.154;13.812;2023-11-21T12:25:33;14.80;;;8.50;;
39104;SDS011;46464;51.154;13.812;2023-11-21T12:28:00;16.88;;;10.38;;
39104;SDS011;46464;51.154;13.812;2023-11-21T12:30:30;19.98;;;11.57;;
39104;SDS011;46464;51.154;13.812;2023-11-21T12:33:02;23.67;;;12.05;;
39104;SDS011;46464;51.154;13.812;2023-11-21T12:35:30;18.05;;;9.95;;
39104;SDS011;46464;51.154;13.812;2023-11-21T12:38:00;13.60;;;9.38;;
39104;SDS011;46464;51.154;13.812;2023-11-21T12:40:32;14.00;;;8.15;;
39104;SDS011;46464;51.154;13.812;2023-11-21T12:45:31;12.10;;;8.20;;
39104;SDS011;46464;51.154;13.812;2023-11-21T12:50:52;14.43;;;8.95;;
39104;SDS011;46464;51.154;13.812;2023-11-21T12:53:19;16.60;;;10.65;;
39104;SDS011;46464;51.154;13.812;2023-11-21T12:55:46;16.25;;;9.63;;
39104;SDS011;46464;51.154;13.812;2023-11-21T12:58:16;17.27;;;9.48;;
39104;SDS011;46464;51.154;13.812;2023-11-21T13:00:49;18.95;;;10.68;;
39104;SDS011;46464;51.154;13.812;2023-11-21T13:03:24;19.20;;;11.45;;
39104;SDS011;46464;51.154;13.812;2023-11-21T13:05:55;18.83;;;9.52;;
39104;SDS011;46464;51.154;13.812;2023-11-21T13:08:23;18.38;;;10.77;;
39104;SDS011;46464;51.154;13.812;2023-11-21T13:10:52;19.92;;;11.27;;
39104;SDS011;46464;51.154;13.812;2023-11-21T13:13:22;20.85;;;11.13;;
39104;SDS011;46464;51.154;13.812;2023-11-21T13:15:51;21.73;;;11.90;;
39104;SDS011;46464;51.154;13.812;2023-11-21T13:20:48;18.38;;;10.55;;
39104;SDS011;46464;51.154;13.812;2023-11-21T13:23:21;20.77;;;11.50;;
39104;SDS011;46464;51.154;13.812;2023-11-21T13:25:49;21.00;;;11.25;;
39104;SDS011;46464;51.154;13.812;2023-11-21T13:28:27;16.70;;;10.25;;
39104;SDS011;46464;51.154;13.812;2023-11-21T13:30:59;19.17;;;10.75;;
39104;SDS011;46464;51.154;13.812;2023-11-21T13:33:36;18.13;;;10.32;;
39104;SDS011;46464;51.154;13.812;2023-11-21T13:36:09;20.55;;;12.07;;
39104;SDS011;46464;51.154;13.812;2023-11-21T13:38:37;19.25;;;10.02;;
39104;SDS011;46464;51.154;13.812;2023-11-21T13:41:09;20.52;;;10.50;;
39104;SDS011;46464;51.154;13.812;2023-11-21T13:43:44;19.25;;;10.18;;
39104;SDS011;46464;51.154;13.812;2023-11-21T13:46:24;17.88;;;10.48;;
39104;SDS011;46464;51.154;13.812;2023-11-21T13:48:51;18.25;;;10.32;;
39104;SDS011;46464;51.154;13.812;2023-11-21T13:51:23;21.20;;;10.63;;
39104;SDS011;46464;51.154;13.812;2023-11-21T13:54:00;20.02;;;11.60;;
39104;SDS011;46464;51.154;13.812;2023-11-21T13:58:55;26.05;;;13.10;;
39104;SDS011;46464;51.154;13.812;2023-11-21T14:01:23;25.30;;;13.20;;
39104;SDS011;46464;51.154;13.812;2023-11-21T14:04:00;26.85;;;12.23;;
39104;SDS011;46464;51.154;13.812;2023-11-21T14:06:35;27.05;;;12.68;;
39104;SDS011;46464;51.154;13.812;2023-11-21T14:09:32;22.13;;;12.40;;
39104;SDS011;46464;51.154;13.812;2023-11-21T14:12:02;21.15;;;11.30;;
39104;SDS011;46464;51.154;13.812;2023-11-21T14:14:34;17.45;;;10.98;;
39104;SDS011;46464;51.154;13.812;2023-11-21T14:17:03;19.08;;;10.25;;
39104;SDS011;46464;51.154;13.812;2023-11-21T14:22:15;17.08;;;8.68;;
39104;SDS011;46464;51.154;13.812;2023-11-21T14:24:43;17.48;;;9.38;;
39104;SDS011;46464;51.154;13.812;2023-11-21T14:27:16;18.23;;;10.70;;
39104;SDS011;46464;51.154;13.812;2023-11-21T14:29:43;17.02;;;9.35;;
39104;SDS011;46464;51.154;13.812;2023-11-21T14:32:16;15.90;;;9.35;;
39104;SDS011;46464;51.154;13.812;2023-11-21T14:34:43;19.55;;;11.50;;
39104;SDS011;46464;51.154;13.812;2023-11-21T14:37:14;16.10;;;10.20;;
39104;SDS011;46464;51.154;13.812;2023-11-21T14:39:40;13.80;;;8.23;;
39104;SDS011;46464;51.154;13.812;2023-11-21T14:42:16;14.55;;;7.80;;
39104;SDS011;46464;51.154;13.812;2023-11-21T14:44:50;15.05;;;9.57;;
39104;SDS011;46464;51.154;13.812;2023-11-21T14:47:18;19.25;;;11.27;;
39104;SDS011;46464;51.154;13.812;2023-11-21T14:49:51;14.30;;;9.48;;
39104;SDS011;46464;51.154;13.812;2023-11-21T14:52:23;17.65;;;10.75;;
39104;SDS011;46464;51.154;13.812;2023-11-21T14:55:02;18.50;;;9.18;;
39104;SDS011;46464;51.154;13.812;2023-11-21T14:58:08;15.35;;;9.55;;
39104;SDS011;46464;51.154;13.812;2023-11-21T15:00:38;15.63;;;10.18;;
39104;SDS011;46464;51.154;13.812;2023-11-21T15:03:14;15.13;;;11.23;;
39104;SDS011;46464;51.154;13.812;2023-11-21T15:06:01;20.45;;;13.07;;
39104;SDS011;46464;51.154;13.812;2023-11-21T15:08:52;19.05;;;11.27;;
39104;SDS011;46464;51.154;13.812;2023-11-21T15:11:35;20.90;;;13.05;;
39104;SDS011;46464;51.154;13.812;2023-11-21T15:14:04;34.50;;;29.17;;
39104;SDS011;46464;51.154;13.812;2023-11-21T15:16:35;16.08;;;12.27;;
39104;SDS011;46464;51.154;13.812;2023-11-21T15:19:08;30.60;;;26.65;;
39104;SDS011;46464;51.154;13.812;2023-11-21T15:21:36;56.53;;;50.28;;
39104;SDS011;46464;51.154;13.812;2023-11-21T15:26:38;14.77;;;9.43;;
39104;SDS011;46464;51.154;13.812;2023-11-21T15:29:05;16.90;;;11.30;;
39104;SDS011;46464;51.154;13.812;2023-11-21T15:31:32;18.50;;;9.25;;
39104;SDS011;46464;51.154;13.812;2023-11-21T15:34:02;10.60;;;7.63;;
39104;SDS011;46464;51.154;13.812;2023-11-21T15:36:31;14.05;;;8.52;;
39104;SDS011;46464;51.154;13.812;2023-11-21T15:38:58;14.32;;;10.18;;
39104;SDS011;46464;51.154;13.812;2023-11-21T15:43:52;11.45;;;8.60;;
39104;SDS011;46464;51.154;13.812;2023-11-21T15:46:19;10.98;;;7.57;;
39104;SDS011;46464;51.154;13.812;2023-11-21T15:48:45;14.15;;;9.68;;
39104;SDS011;46464;51.154;13.812;2023-11-21T15:51:21;9.07;;;6.70;;
39104;SDS011;46464;51.154;13.812;2023-11-21T15:53:54;8.48;;;6.05;;
39104;SDS011;46464;51.154;13.812;2023-11-21T15:56:21;10.35;;;5.28;;
39104;SDS011;46464;51.154;13.812;2023-11-21T15:58:51;7.35;;;5.13;;
39104;SDS011;46464;51.154;13.812;2023-11-21T16:01:18;13.05;;;5.07;;
39104;SDS011;46464;51.154;13.812;2023-11-21T16:03:54;9.60;;;5.75;;
39104;SDS011;46464;51.154;13.812;2023-11-21T16:06:21;5.93;;;3.72;;
39104;SDS011;46464;51.154;13.812;2023-11-21T16:08:48;7.93;;;4.55;;
39104;SDS011;46464;51.154;13.812;2023-11-21T16:16:08;6.90;;;3.60;;
39104;SDS011;46464;51.154;13.812;2023-11-21T16:18:35;11.45;;;7.18;;
39104;SDS011;46464;51.154;13.812;2023-11-21T16:21:02;10.43;;;4.72;;